createdAt,value
2023-04-28T00:00:58.391Z,4.81
2023-04-28T00:03:28.540Z,4.87
2023-04-28T00:05:57.771Z,4.80
2023-04-28T00:08:27.380Z,4.61
2023-04-28T00:10:55.557Z,4.78
2023-04-28T00:13:23.718Z,4.72
2023-04-28T00:15:55.778Z,4.73
2023-04-28T00:18:24.188Z,4.64
2023-04-28T00:20:53.064Z,4.51
2023-04-28T00:23:21.826Z,4.59
2023-04-28T00:25:53.674Z,4.66
2023-04-28T00:28:33.545Z,4.57
2023-04-28T00:31:02.575Z,4.51
2023-04-28T00:33:31.237Z,4.48
2023-04-28T00:36:00.856Z,4.31
2023-04-28T00:38:29.574Z,4.39
2023-04-28T00:40:58.343Z,4.40
2023-04-28T00:43:27.055Z,4.23
2023-04-28T00:45:55.697Z,4.18
2023-04-28T00:48:24.746Z,4.22
2023-04-28T00:50:52.865Z,4.14
2023-04-28T00:53:21.600Z,4.04
2023-04-28T00:55:54.283Z,4.04
2023-04-28T00:58:23.034Z,3.97
2023-04-28T01:00:51.771Z,3.96
2023-04-28T01:03:20.438Z,4.01
2023-04-28T01:05:49.423Z,3.92
2023-04-28T01:08:23.335Z,3.98
2023-04-28T01:10:51.675Z,3.94
2023-04-28T01:13:21.576Z,4.01
2023-04-28T01:15:50.493Z,4.04
2023-04-28T01:18:19.100Z,4.06
2023-04-28T01:20:47.671Z,3.93
2023-04-28T01:23:17.253Z,4.07
2023-04-28T01:25:45.823Z,4.03
2023-04-28T01:28:14.582Z,4.08
2023-04-28T01:30:42.754Z,4.08
2023-04-28T01:33:10.972Z,3.91
2023-04-28T01:35:39.440Z,3.70
2023-04-28T01:38:07.946Z,3.63
2023-04-28T01:40:36.364Z,3.66
2023-04-28T01:43:04.748Z,3.62
2023-04-28T01:45:33.116Z,3.34
2023-04-28T01:48:01.430Z,2.87
2023-04-28T01:50:30.157Z,2.96
2023-04-28T01:52:58.571Z,2.75
2023-04-28T01:55:27.574Z,2.97
2023-04-28T01:57:58.457Z,3.07
2023-04-28T02:00:27.608Z,2.98
2023-04-28T02:02:56.553Z,3.01
2023-04-28T02:05:25.870Z,3.01
2023-04-28T02:07:54.109Z,2.96
2023-04-28T02:10:22.536Z,2.85
2023-04-28T02:12:50.975Z,2.84
2023-04-28T02:15:19.673Z,2.88
2023-04-28T02:17:48.463Z,2.81
2023-04-28T02:20:16.987Z,2.68
2023-04-28T02:22:46.237Z,2.71
2023-04-28T02:25:14.400Z,2.84
2023-04-28T02:27:42.715Z,3.04
2023-04-28T02:30:11.684Z,3.15
2023-04-28T02:32:40.147Z,2.94
2023-04-28T02:35:08.514Z,2.47
2023-04-28T02:37:37.031Z,2.54
2023-04-28T02:40:05.873Z,2.57
2023-04-28T02:42:34.319Z,2.45
2023-04-28T02:45:03.093Z,2.48
2023-04-28T02:47:31.348Z,2.58
2023-04-28T02:49:59.598Z,2.66
2023-04-28T02:52:28.595Z,2.69
2023-04-28T02:54:57.767Z,2.50
2023-04-28T02:57:26.889Z,2.52
2023-04-28T02:59:55.836Z,2.64
2023-04-28T03:02:25.102Z,2.73
2023-04-28T03:04:53.370Z,2.30
2023-04-28T03:07:22.188Z,2.51
2023-04-28T03:09:50.538Z,2.31
2023-04-28T03:12:18.609Z,2.40
2023-04-28T03:14:47.988Z,2.57
2023-04-28T03:17:17.299Z,2.74
2023-04-28T03:19:45.895Z,2.79
2023-04-28T03:22:18.920Z,2.80
2023-04-28T03:24:47.982Z,2.81
2023-04-28T03:27:17.501Z,2.73
2023-04-28T03:29:45.837Z,2.87
2023-04-28T03:32:14.181Z,2.92
2023-04-28T03:34:42.820Z,2.87
2023-04-28T03:37:11.380Z,2.89
2023-04-28T03:39:40.510Z,2.99
2023-04-28T03:42:09.026Z,2.98
2023-04-28T03:44:42.486Z,2.95
2023-04-28T03:47:11.170Z,2.91
2023-04-28T03:49:39.766Z,2.95
2023-04-28T03:52:08.519Z,2.94
2023-04-28T03:54:37.031Z,2.87
2023-04-28T03:57:05.241Z,3.00
2023-04-28T03:59:34.058Z,3.01
2023-04-28T04:02:02.647Z,3.19
2023-04-28T04:04:31.761Z,3.16
2023-04-28T04:07:00.618Z,3.24
2023-04-28T04:09:29.044Z,3.27
2023-04-28T04:11:58.820Z,2.80
2023-04-28T04:14:27.069Z,2.81
2023-04-28T04:16:55.641Z,3.00
2023-04-28T04:19:26.487Z,3.04
2023-04-28T04:21:55.395Z,2.58
2023-04-28T04:24:24.656Z,2.44
2023-04-28T04:26:52.962Z,2.60
2023-04-28T04:29:22.712Z,2.63
2023-04-28T04:31:51.372Z,2.79
2023-04-28T04:34:19.524Z,2.97
2023-04-28T04:36:47.757Z,2.84
2023-04-28T04:39:16.248Z,2.91
2023-04-28T04:41:44.510Z,3.06
2023-04-28T04:44:14.363Z,3.19
2023-04-28T04:46:44.051Z,3.39
2023-04-28T04:49:12.333Z,3.48
2023-04-28T04:51:40.845Z,3.17
2023-04-28T04:54:09.660Z,3.18
2023-04-28T04:56:38.575Z,3.18
2023-04-28T04:59:07.367Z,3.29
2023-04-28T05:01:37.047Z,3.55
2023-04-28T05:04:05.782Z,3.66
2023-04-28T05:06:34.658Z,3.82
2023-04-28T05:09:03.388Z,3.98
2023-04-28T05:11:33.944Z,4.12
2023-04-28T05:14:02.434Z,4.32
2023-04-28T05:16:31.004Z,4.54
2023-04-28T05:18:59.614Z,4.67
2023-04-28T05:21:28.795Z,4.76
2023-04-28T05:23:57.490Z,4.94
2023-04-28T05:26:26.233Z,5.16
2023-04-28T05:28:55.167Z,5.22
2023-04-28T05:31:23.488Z,5.10
2023-04-28T05:33:52.656Z,5.15
2023-04-28T05:36:21.200Z,5.05
2023-04-28T05:38:49.867Z,5.09
2023-04-28T05:41:18.009Z,5.13
2023-04-28T05:43:47.995Z,5.07
2023-04-28T05:46:29.146Z,5.35
2023-04-28T05:48:59.136Z,5.48
2023-04-28T05:51:28.043Z,5.60
2023-04-28T05:53:56.737Z,5.58
2023-04-28T05:56:25.970Z,5.64
2023-04-28T05:58:54.544Z,6.00
2023-04-28T06:01:24.714Z,6.29
2023-04-28T06:03:54.146Z,6.51
2023-04-28T06:06:22.764Z,6.73
2023-04-28T06:08:51.123Z,6.78
2023-04-28T06:11:22.770Z,6.59
2023-04-28T06:13:51.647Z,6.59
2023-04-28T06:16:20.241Z,6.56
2023-04-28T06:18:49.812Z,6.46
2023-04-28T06:21:21.432Z,6.83
2023-04-28T06:23:50.737Z,6.94
2023-04-28T06:26:19.143Z,7.24
2023-04-28T06:28:47.812Z,7.35
2023-04-28T06:31:17.020Z,7.34
2023-04-28T06:33:46.313Z,7.75
2023-04-28T06:36:16.875Z,8.08
2023-04-28T06:38:46.558Z,8.22
2023-04-28T06:41:14.796Z,8.52
2023-04-28T06:43:43.685Z,8.50
2023-04-28T06:46:12.298Z,8.66
2023-04-28T06:48:40.631Z,8.93
2023-04-28T06:51:08.947Z,8.90
2023-04-28T06:53:37.790Z,8.83
2023-04-28T06:56:11.242Z,9.09
2023-04-28T06:58:40.250Z,8.88
2023-04-28T07:01:08.406Z,9.01
2023-04-28T07:03:37.206Z,9.22
2023-04-28T07:06:06.604Z,9.26
2023-04-28T07:08:36.895Z,9.52
2023-04-28T07:11:06.331Z,9.95
2023-04-28T07:13:34.795Z,9.67
2023-04-28T07:16:03.973Z,10.12
2023-04-28T07:18:32.380Z,10.10
2023-04-28T07:21:01.489Z,10.32
2023-04-28T07:23:31.016Z,10.46
2023-04-28T07:25:59.494Z,10.87
2023-04-28T07:28:28.438Z,11.03
2023-04-28T07:30:57.590Z,11.16
2023-04-28T07:33:26.173Z,11.55
2023-04-28T07:35:54.554Z,11.92
2023-04-28T07:38:22.744Z,11.92
2023-04-28T07:43:20.716Z,12.37
2023-04-28T07:45:49.742Z,12.55
2023-04-28T07:48:18.480Z,11.65
2023-04-28T07:50:46.866Z,12.22
2023-04-28T07:53:14.911Z,12.11
2023-04-28T07:55:44.832Z,12.10
2023-04-28T07:58:13.315Z,12.06
2023-04-28T08:00:41.557Z,12.34
2023-04-28T08:03:10.084Z,12.70
2023-04-28T08:05:39.720Z,12.83
2023-04-28T08:08:07.925Z,13.06
2023-04-28T08:10:36.546Z,13.05
2023-04-28T08:13:04.642Z,13.13
2023-04-28T08:15:32.894Z,12.79
2023-04-28T08:18:01.596Z,13.11
2023-04-28T08:20:30.565Z,13.02
2023-04-28T08:22:59.123Z,13.98
2023-04-28T08:25:27.714Z,14.50
2023-04-28T08:27:57.535Z,14.84
2023-04-28T08:30:25.922Z,15.22
2023-04-28T08:32:54.505Z,15.29
2023-04-28T08:35:22.677Z,14.98
2023-04-28T08:37:52.789Z,15.48
2023-04-28T08:40:22.013Z,15.75
2023-04-28T08:42:50.819Z,15.34
2023-04-28T08:45:19.025Z,15.93
2023-04-28T08:47:49.868Z,16.18
2023-04-28T08:50:23.443Z,15.59
2023-04-28T08:52:52.472Z,16.61
2023-04-28T08:55:21.109Z,16.41
2023-04-28T08:57:54.774Z,17.36
2023-04-28T09:00:24.863Z,17.53
2023-04-28T09:02:53.207Z,17.09
2023-04-28T09:05:22.145Z,16.88
2023-04-28T09:07:52.146Z,16.84
2023-04-28T09:10:23.075Z,17.56
2023-04-28T09:12:56.109Z,16.96
2023-04-28T09:15:42.577Z,17.16
2023-04-28T09:18:14.948Z,17.03
2023-04-28T09:20:44.662Z,16.43
2023-04-28T09:23:18.860Z,15.90
2023-04-28T09:26:03.586Z,15.66
2023-04-28T09:28:36.420Z,15.35
2023-04-28T09:31:04.532Z,15.63
2023-04-28T09:33:33.175Z,15.62
2023-04-28T09:36:01.562Z,15.60
2023-04-28T09:38:29.680Z,15.98
2023-04-28T09:41:03.198Z,15.76
2023-04-28T09:43:33.645Z,15.56
2023-04-28T09:46:04.565Z,15.95
2023-04-28T09:48:36.657Z,15.98
2023-04-28T09:51:07.896Z,15.72
2023-04-28T09:53:36.159Z,15.94
2023-04-28T09:56:08.329Z,16.05
2023-04-28T09:58:40.382Z,16.06
2023-04-28T10:01:11.976Z,16.09
2023-04-28T10:03:41.660Z,15.73
2023-04-28T10:06:10.675Z,15.60
2023-04-28T10:08:40.259Z,15.39
2023-04-28T10:11:09.980Z,15.91
2023-04-28T10:13:38.441Z,16.08
2023-04-28T10:16:08.161Z,16.19
2023-04-28T10:18:37.900Z,16.23
2023-04-28T10:21:07.476Z,16.79
2023-04-28T10:24:04.232Z,16.95
2023-04-28T10:26:56.704Z,16.58
2023-04-28T10:29:26.454Z,16.79
2023-04-28T10:32:26.548Z,17.28
2023-04-28T10:35:33.106Z,17.32
2023-04-28T10:38:18.273Z,17.63
2023-04-28T10:40:48.555Z,17.07
2023-04-28T10:43:27.363Z,16.56
2023-04-28T10:46:01.735Z,16.80
2023-04-28T10:48:31.072Z,16.37
2023-04-28T10:51:09.720Z,16.21
2023-04-28T10:53:44.519Z,16.40
2023-04-28T10:56:18.631Z,16.44
2023-04-28T10:58:51.781Z,16.23
2023-04-28T11:01:24.697Z,16.46
2023-04-28T11:04:08.289Z,16.73
2023-04-28T11:06:40.273Z,16.33
2023-04-28T11:09:14.874Z,16.09
2023-04-28T11:12:02.226Z,16.25
2023-04-28T11:14:33.850Z,15.93
2023-04-28T11:17:07.177Z,16.00
2023-04-28T11:19:42.756Z,15.72
2023-04-28T11:22:19.911Z,15.67
2023-04-28T11:24:57.339Z,15.79
2023-04-28T11:27:27.026Z,15.59
2023-04-28T11:29:55.939Z,15.53
2023-04-28T11:32:32.391Z,15.53
2023-04-28T11:35:01.254Z,15.72
2023-04-28T11:37:29.469Z,15.68
2023-04-28T11:39:58.357Z,15.58
2023-04-28T11:42:29.391Z,15.54
2023-04-28T11:44:57.771Z,15.48
2023-04-28T11:47:33.595Z,15.14
2023-04-28T11:50:03.356Z,15.17
2023-04-28T11:52:32.115Z,15.46
2023-04-28T11:55:02.298Z,15.62
2023-04-28T11:57:31.416Z,15.79
2023-04-28T12:00:19.541Z,15.91
2023-04-28T12:02:48.632Z,16.05
2023-04-28T12:05:17.440Z,15.93
2023-04-28T12:07:46.771Z,15.52
2023-04-28T12:10:16.902Z,15.55
2023-04-28T12:12:52.352Z,15.40
2023-04-28T12:15:22.929Z,15.40
2023-04-28T12:18:16.356Z,15.39
2023-04-28T12:20:45.478Z,15.66
2023-04-28T12:23:13.698Z,15.74
2023-04-28T12:25:46.180Z,15.66
2023-04-28T12:28:15.375Z,15.46
2023-04-28T12:30:43.968Z,15.42
2023-04-28T12:33:29.160Z,15.21
2023-04-28T12:35:57.980Z,15.30
2023-04-28T12:38:26.652Z,15.38
2023-04-28T12:40:55.790Z,15.37
2023-04-28T12:43:25.766Z,15.48
2023-04-28T12:45:55.698Z,15.46
2023-04-28T12:48:25.682Z,15.42
2023-04-28T12:50:53.813Z,15.51
2023-04-28T12:53:21.917Z,15.73
2023-04-28T12:55:50.364Z,15.95
2023-04-28T12:58:18.609Z,15.94
2023-04-28T13:00:47.051Z,15.71
2023-04-28T13:03:15.949Z,15.84
2023-04-28T13:05:44.361Z,16.18
2023-04-28T13:08:13.993Z,16.06
2023-04-28T13:10:42.716Z,16.02
2023-04-28T13:13:11.051Z,16.02
2023-04-28T13:15:39.449Z,15.78
2023-04-28T13:18:08.164Z,15.73
2023-04-28T13:20:36.363Z,15.79
2023-04-28T13:23:04.488Z,15.80
2023-04-28T13:25:32.888Z,15.83
2023-04-28T13:28:01.327Z,15.83
2023-04-28T13:30:29.962Z,15.79
2023-04-28T13:32:59.066Z,15.86
2023-04-28T13:35:27.515Z,16.09
2023-04-28T13:38:01.750Z,15.93
2023-04-28T13:40:30.557Z,16.07
2023-04-28T13:42:58.793Z,16.07
2023-04-28T13:45:27.247Z,15.91
2023-04-28T13:47:55.841Z,15.98
2023-04-28T13:50:24.038Z,15.91
2023-04-28T13:52:53.149Z,16.02
2023-04-28T13:55:28.259Z,15.94
2023-04-28T13:57:57.224Z,15.89
2023-04-28T14:00:26.152Z,15.96
2023-04-28T14:02:55.246Z,16.09
2023-04-28T14:05:23.564Z,15.94
2023-04-28T14:07:54.266Z,15.87
2023-04-28T14:10:23.247Z,15.71
2023-04-28T14:12:51.926Z,15.66
2023-04-28T14:15:20.401Z,15.79
2023-04-28T14:17:48.810Z,15.62
2023-04-28T14:20:17.928Z,15.69
2023-04-28T14:22:46.237Z,15.60
2023-04-28T14:25:14.696Z,15.65
2023-04-28T14:27:42.902Z,15.70
2023-04-28T14:30:11.596Z,15.66
2023-04-28T14:32:41.510Z,15.61
2023-04-28T14:35:13.504Z,15.71
2023-04-28T14:37:43.064Z,15.61
2023-04-28T14:40:11.583Z,15.59
2023-04-28T14:42:39.928Z,15.56
2023-04-28T14:45:10.752Z,15.56
2023-04-28T14:47:40.309Z,15.56
2023-04-28T14:50:10.326Z,15.46
2023-04-28T14:52:39.140Z,15.52
2023-04-28T14:55:08.035Z,15.51
2023-04-28T14:57:37.714Z,15.43
2023-04-28T15:00:09.295Z,15.36
2023-04-28T15:02:38.247Z,15.39
2023-04-28T15:05:08.163Z,15.37
2023-04-28T15:07:36.729Z,15.37
2023-04-28T15:10:05.771Z,15.34
2023-04-28T15:12:34.515Z,15.36
2023-04-28T15:15:02.678Z,15.32
2023-04-28T15:17:31.254Z,15.32
2023-04-28T15:19:59.901Z,15.29
2023-04-28T15:22:28.048Z,15.36
2023-04-28T15:24:57.129Z,15.46
2023-04-28T15:27:25.555Z,13.63
2023-04-28T15:29:54.177Z,15.34
2023-04-28T15:32:23.515Z,15.35
2023-04-28T15:34:52.983Z,15.25
2023-04-28T15:37:41.657Z,15.22
2023-04-28T15:40:12.775Z,15.20
2023-04-28T15:42:49.050Z,15.13
2023-04-28T15:45:19.408Z,15.13
2023-04-28T15:47:50.605Z,15.23
2023-04-28T15:50:20.318Z,15.17
2023-04-28T15:52:50.121Z,15.10
2023-04-28T15:55:21.767Z,15.08
2023-04-28T15:57:51.338Z,15.03
2023-04-28T16:00:19.598Z,15.04
2023-04-28T16:02:48.619Z,15.00
2023-04-28T16:05:16.989Z,14.94
2023-04-28T16:07:45.419Z,14.98
2023-04-28T16:10:16.203Z,14.93
2023-04-28T16:12:44.615Z,14.88
2023-04-28T16:15:13.595Z,14.90
2023-04-28T16:17:42.460Z,14.87
2023-04-28T16:20:14.569Z,14.82
2023-04-28T16:22:43.480Z,14.81
2023-04-28T16:25:12.462Z,14.78
2023-04-28T16:27:41.746Z,14.77
2023-04-28T16:30:10.602Z,14.74
2023-04-28T16:32:41.305Z,14.70
2023-04-28T16:35:15.062Z,14.69
2023-04-28T16:37:44.436Z,14.71
2023-04-28T16:40:13.351Z,14.70
2023-04-28T16:42:42.234Z,14.67
2023-04-28T16:45:11.887Z,14.67
2023-04-28T16:47:46.347Z,14.63
2023-04-28T16:50:14.939Z,14.66
2023-04-28T16:52:43.508Z,14.57
2023-04-28T16:55:11.781Z,14.54
2023-04-28T16:57:40.078Z,14.49
2023-04-28T17:00:09.378Z,14.50
2023-04-28T17:02:38.280Z,14.49
2023-04-28T17:05:07.315Z,14.47
2023-04-28T17:07:35.842Z,14.43
2023-04-28T17:10:04.489Z,14.43
2023-04-28T17:12:32.820Z,14.41
2023-04-28T17:15:01.346Z,14.40
2023-04-28T17:17:29.898Z,14.35
2023-04-28T17:19:59.925Z,14.35
2023-04-28T17:22:31.020Z,14.32
2023-04-28T17:24:59.288Z,14.30
2023-04-28T17:27:27.384Z,14.27
2023-04-28T17:29:58.458Z,14.27
2023-04-28T17:32:27.380Z,14.23
2023-04-28T17:34:55.741Z,14.20
2023-04-28T17:37:24.204Z,14.15
2023-04-28T17:39:52.911Z,14.12
2023-04-28T17:42:21.590Z,14.11
2023-04-28T17:44:49.784Z,14.08
2023-04-28T17:47:18.095Z,14.02
2023-04-28T17:49:47.111Z,14.02
2023-04-28T17:52:15.669Z,13.99
2023-04-28T17:54:43.919Z,13.95
2023-04-28T17:57:13.185Z,13.96
2023-04-28T17:59:42.748Z,13.89
2023-04-28T18:02:11.968Z,13.85
2023-04-28T18:04:40.660Z,13.83
2023-04-28T18:07:08.828Z,13.77
2023-04-28T18:09:37.309Z,13.80
2023-04-28T18:12:07.024Z,13.72
2023-04-28T18:14:35.111Z,13.72
2023-04-28T18:17:03.356Z,13.70
2023-04-28T18:19:32.326Z,13.46
2023-04-28T18:22:00.607Z,13.36
2023-04-28T18:24:28.871Z,13.31
2023-04-28T18:26:57.602Z,13.23
2023-04-28T18:29:25.776Z,13.12
2023-04-28T18:31:55.676Z,13.07
2023-04-28T18:34:24.626Z,12.86
2023-04-28T18:36:53.234Z,12.90
2023-04-28T18:39:21.381Z,12.84
2023-04-28T18:41:50.108Z,12.78
2023-04-28T18:44:19.246Z,12.77
2023-04-28T18:46:47.761Z,12.73
2023-04-28T18:49:16.268Z,12.65
2023-04-28T18:51:44.422Z,12.62
2023-04-28T18:54:15.936Z,12.57
2023-04-28T18:56:44.888Z,12.48
2023-04-28T18:59:13.082Z,12.61
2023-04-28T19:01:41.498Z,12.70
2023-04-28T19:04:10.459Z,12.66
2023-04-28T19:06:39.686Z,12.64
2023-04-28T19:09:09.148Z,12.65
2023-04-28T19:11:39.571Z,12.63
2023-04-28T19:14:11.529Z,12.65
2023-04-28T19:16:40.586Z,12.62
2023-04-28T19:19:09.740Z,12.57
2023-04-28T19:21:42.403Z,12.53
2023-04-28T19:24:12.656Z,12.51
2023-04-28T19:26:40.991Z,12.49
2023-04-28T19:29:09.334Z,12.45
2023-04-28T19:31:38.886Z,12.45
2023-04-28T19:34:07.496Z,12.48
2023-04-28T19:36:36.365Z,12.40
2023-04-28T19:39:05.057Z,12.38
2023-04-28T19:41:35.988Z,12.32
2023-04-28T19:44:05.598Z,12.19
2023-04-28T19:46:34.273Z,12.21
2023-04-28T19:49:02.756Z,12.27
2023-04-28T19:51:31.571Z,12.18
2023-04-28T19:54:00.139Z,12.14
2023-04-28T19:56:28.593Z,12.06
2023-04-28T19:58:58.773Z,11.98
2023-04-28T20:01:27.445Z,12.06
2023-04-28T20:03:56.279Z,12.04
2023-04-28T20:06:24.744Z,12.05
2023-04-28T20:08:53.295Z,11.89
2023-04-28T20:11:22.195Z,11.95
2023-04-28T20:13:50.775Z,11.84
2023-04-28T20:16:20.441Z,11.85
2023-04-28T20:18:49.424Z,11.72
2023-04-28T20:21:18.240Z,11.72
2023-04-28T20:23:47.609Z,11.66
2023-04-28T20:26:16.566Z,11.86
2023-04-28T20:28:47.263Z,11.65
2023-04-28T20:31:15.841Z,11.69
2023-04-28T20:33:44.213Z,11.70
2023-04-28T20:36:13.096Z,11.63
2023-04-28T20:38:43.416Z,11.63
2023-04-28T20:41:12.144Z,11.70
2023-04-28T20:43:41.107Z,11.67
2023-04-28T20:46:10.786Z,11.70
2023-04-28T20:48:39.773Z,11.50
2023-04-28T20:51:08.171Z,11.61
2023-04-28T20:53:38.398Z,11.61
2023-04-28T20:56:06.808Z,11.62
2023-04-28T20:58:35.396Z,11.59
2023-04-28T21:01:03.939Z,11.57
2023-04-28T21:03:32.497Z,11.59
2023-04-28T21:06:00.685Z,11.61
2023-04-28T21:08:30.223Z,11.62
2023-04-28T21:10:58.575Z,11.63
2023-04-28T21:13:27.022Z,11.60
2023-04-28T21:15:56.169Z,11.58
2023-04-28T21:18:24.574Z,11.49
2023-04-28T21:20:54.747Z,11.48
2023-04-28T21:23:23.644Z,11.45
2023-04-28T21:25:52.354Z,11.42
2023-04-28T21:28:21.489Z,11.38
2023-04-28T21:30:52.776Z,11.25
2023-04-28T21:33:22.403Z,11.06
2023-04-28T21:35:51.085Z,10.85
2023-04-28T21:38:19.504Z,10.87
2023-04-28T21:40:48.843Z,10.78
2023-04-28T21:43:17.615Z,10.76
2023-04-28T21:45:46.109Z,10.61
2023-04-28T21:48:14.324Z,10.69
2023-04-28T21:50:42.773Z,10.62
2023-04-28T21:53:10.872Z,10.66
2023-04-28T21:55:39.934Z,10.74
2023-04-28T21:58:08.405Z,10.66
2023-04-28T22:00:39.811Z,10.59
2023-04-28T22:03:08.639Z,10.50
2023-04-28T22:05:37.165Z,10.56
2023-04-28T22:08:05.734Z,10.44
2023-04-28T22:10:35.032Z,10.41
2023-04-28T22:13:04.084Z,10.48
2023-04-28T22:15:32.955Z,10.53
2023-04-28T22:18:02.049Z,10.53
2023-04-28T22:20:30.362Z,10.51
2023-04-28T22:22:58.644Z,10.53
2023-04-28T22:25:27.239Z,10.50
2023-04-28T22:27:55.427Z,10.36
2023-04-28T22:30:25.777Z,10.31
2023-04-28T22:32:55.103Z,10.28
2023-04-28T22:35:23.774Z,10.30
2023-04-28T22:37:52.099Z,10.26
2023-04-28T22:40:20.890Z,10.13
2023-04-28T22:42:49.179Z,10.22
2023-04-28T22:45:17.214Z,10.23
2023-04-28T22:47:46.353Z,10.21
2023-04-28T22:50:14.626Z,10.28
2023-04-28T22:52:42.754Z,10.23
2023-04-28T22:55:12.161Z,10.17
2023-04-28T22:57:41.213Z,10.18
2023-04-28T23:00:10.147Z,10.25
2023-04-28T23:02:39.271Z,10.25
2023-04-28T23:05:07.769Z,10.23
2023-04-28T23:07:36.086Z,10.08
2023-04-28T23:10:05.525Z,10.12
2023-04-28T23:12:33.919Z,10.19
2023-04-28T23:15:02.611Z,10.10
2023-04-28T23:17:31.823Z,10.00
2023-04-28T23:19:59.968Z,10.09
2023-04-28T23:22:28.107Z,10.13
2023-04-28T23:24:56.701Z,10.13
2023-04-28T23:27:25.359Z,10.15
2023-04-28T23:29:53.627Z,10.15
2023-04-28T23:32:22.285Z,10.15
2023-04-28T23:34:50.783Z,10.18
2023-04-28T23:37:18.939Z,10.12
2023-04-28T23:39:47.962Z,10.09
2023-04-28T23:42:16.478Z,10.04
2023-04-28T23:44:44.725Z,10.12
2023-04-28T23:47:14.814Z,10.13
2023-04-28T23:49:43.115Z,10.10
2023-04-28T23:52:11.368Z,9.98
2023-04-28T23:54:40.102Z,9.89
2023-04-28T23:57:08.320Z,9.94
2023-04-28T23:59:36.850Z,9.97
